createdAt,value
2022-08-16T00:02:34.511Z,1.88
2022-08-16T00:05:03.527Z,0.70
2022-08-16T00:07:32.134Z,4.40
2022-08-16T00:10:00.808Z,0.98
2022-08-16T00:12:32.139Z,59.13
2022-08-16T00:15:05.507Z,13.68
2022-08-16T00:17:56.793Z,0.95
2022-08-16T00:20:26.126Z,51.53
2022-08-16T00:22:54.251Z,39.53
2022-08-16T00:26:33.193Z,1.50
2022-08-16T00:28:14.203Z,1.45
2022-08-16T00:30:45.750Z,21.13
2022-08-16T00:35:45.080Z,12.07
2022-08-16T00:38:40.086Z,5.18
2022-08-16T00:41:09.744Z,9.20
2022-08-16T00:43:43.605Z,1.38
2022-08-16T00:46:33.716Z,3.33
2022-08-16T00:49:17.579Z,10.90
2022-08-16T00:51:54.797Z,2.78
2022-08-16T00:54:28.387Z,8.13
2022-08-16T00:57:00.929Z,4.78
2022-08-16T00:59:34.446Z,3.17
2022-08-16T01:02:31.619Z,4.22
2022-08-16T01:05:09.297Z,4.05
2022-08-16T01:07:51.338Z,13.07
2022-08-16T01:10:32.382Z,107.32
2022-08-16T01:13:26.686Z,123.10
2022-08-16T01:16:10.303Z,8.45
2022-08-16T01:18:52.013Z,18.77
2022-08-16T01:21:41.547Z,7.72
2022-08-16T01:24:44.487Z,8.80
2022-08-16T01:27:17.649Z,4.20
2022-08-16T01:29:57.931Z,14.75
2022-08-16T01:32:33.786Z,7.80
2022-08-16T01:35:07.159Z,2.72
2022-08-16T01:37:53.061Z,14.35
2022-08-16T01:40:28.165Z,6.93
2022-08-16T01:42:58.157Z,6.97
2022-08-16T01:45:40.339Z,5.13
2022-08-16T01:48:19.431Z,4.22
2022-08-16T01:51:09.550Z,5.05
2022-08-16T01:53:45.028Z,11.50
2022-08-16T01:56:26.237Z,3.40
2022-08-16T01:58:57.156Z,5.82
2022-08-16T02:01:28.250Z,13.20
2022-08-16T02:03:58.179Z,7.45
2022-08-16T02:06:34.176Z,2.42
2022-08-16T02:09:05.323Z,4.55
2022-08-16T02:11:47.324Z,6.07
2022-08-16T02:14:18.398Z,2.97
2022-08-16T02:19:18.859Z,25.33
2022-08-16T02:22:08.745Z,10.30
2022-08-16T02:24:42.214Z,12.25
2022-08-16T02:27:14.026Z,14.80
2022-08-16T02:29:43.931Z,6.47
2022-08-16T02:32:50.006Z,10.75
2022-08-16T02:35:09.339Z,7.95
2022-08-16T02:37:51.391Z,14.13
2022-08-16T02:40:22.727Z,4.97
2022-08-16T02:42:51.984Z,7.28
2022-08-16T02:45:27.638Z,9.45
2022-08-16T02:48:00.637Z,11.10
2022-08-16T02:50:55.226Z,13.20
2022-08-16T02:53:36.254Z,20.42
2022-08-16T02:56:05.263Z,8.88
2022-08-16T02:58:40.229Z,5.75
2022-08-16T03:01:24.939Z,7.75
2022-08-16T03:04:29.926Z,11.18
2022-08-16T03:06:56.206Z,4.55
2022-08-16T03:09:28.694Z,4.80
2022-08-16T03:11:58.252Z,3.50
2022-08-16T03:14:29.086Z,6.95
2022-08-16T03:17:00.330Z,15.45
2022-08-16T03:19:47.052Z,9.85
2022-08-16T03:22:19.244Z,5.93
2022-08-16T03:25:00.982Z,9.80
2022-08-16T03:27:32.153Z,5.55
2022-08-16T03:30:16.333Z,2.65
2022-08-16T03:32:47.879Z,2.75
2022-08-16T03:35:22.149Z,7.28
2022-08-16T03:38:02.707Z,4.70
2022-08-16T03:40:34.420Z,2.17
2022-08-16T03:43:20.187Z,5.32
2022-08-16T03:45:53.426Z,4.38
2022-08-16T03:48:39.638Z,4.45
2022-08-16T03:51:12.963Z,10.15
2022-08-16T03:53:42.302Z,24.42
2022-08-16T03:56:18.560Z,7.82
2022-08-16T03:58:50.825Z,11.63
2022-08-16T04:01:29.170Z,12.77
2022-08-16T04:03:57.678Z,14.20
2022-08-16T04:06:25.778Z,8.60
2022-08-16T04:08:54.706Z,14.00
2022-08-16T04:11:23.832Z,21.55
2022-08-16T04:14:01.432Z,13.70
2022-08-16T04:16:41.359Z,10.35
2022-08-16T04:19:09.438Z,5.82
2022-08-16T04:21:45.952Z,11.57
2022-08-16T04:24:16.035Z,11.30
2022-08-16T04:26:49.763Z,11.90
2022-08-16T04:29:24.608Z,16.83
2022-08-16T04:31:56.327Z,7.03
2022-08-16T04:34:28.591Z,11.18
2022-08-16T04:36:57.522Z,12.73
2022-08-16T04:39:46.198Z,16.23
2022-08-16T04:42:18.212Z,20.17
2022-08-16T04:44:54.397Z,16.27
2022-08-16T04:47:33.142Z,16.33
2022-08-16T04:50:09.341Z,13.20
2022-08-16T04:52:38.469Z,12.63
2022-08-16T04:55:12.313Z,18.98
2022-08-16T04:57:41.626Z,7.85
2022-08-16T05:00:31.679Z,17.88
2022-08-16T05:03:08.338Z,15.93
2022-08-16T05:05:45.497Z,4.80
2022-08-16T05:08:31.433Z,15.95
2022-08-16T05:11:05.201Z,12.35
2022-08-16T05:13:40.614Z,14.60
2022-08-16T05:16:19.968Z,6.18
2022-08-16T05:18:53.677Z,6.18
2022-08-16T05:21:24.994Z,12.98
2022-08-16T05:24:00.187Z,7.35
2022-08-16T05:26:31.848Z,7.38
2022-08-16T05:29:03.668Z,15.00
2022-08-16T05:31:33.368Z,12.13
2022-08-16T05:34:05.081Z,9.82
2022-08-16T05:39:20.577Z,11.05
2022-08-16T05:41:50.766Z,16.52
2022-08-16T05:44:23.576Z,17.80
2022-08-16T05:46:59.949Z,34.75
2022-08-16T05:49:38.332Z,30.48
2022-08-16T05:52:13.715Z,16.10
2022-08-16T05:54:58.424Z,10.02
2022-08-16T05:57:34.724Z,20.38
2022-08-16T06:00:09.359Z,16.67
2022-08-16T06:02:38.879Z,18.67
2022-08-16T06:05:11.144Z,10.25
2022-08-16T06:07:42.521Z,12.95
2022-08-16T06:10:11.069Z,16.17
2022-08-16T06:12:42.278Z,15.35
2022-08-16T06:15:16.578Z,12.93
2022-08-16T06:17:45.733Z,18.83
2022-08-16T06:20:34.766Z,5.93
2022-08-16T06:23:11.456Z,9.95
2022-08-16T06:25:39.935Z,16.23
2022-08-16T06:28:17.177Z,5.90
2022-08-16T06:31:01.938Z,8.98
2022-08-16T06:33:29.989Z,16.35
2022-08-16T06:36:11.521Z,8.90
2022-08-16T06:38:39.933Z,7.15
2022-08-16T06:41:27.449Z,12.13
2022-08-16T06:43:55.724Z,16.48
2022-08-16T06:46:31.329Z,18.45
2022-08-16T06:49:00.664Z,6.93
2022-08-16T06:51:46.164Z,11.52
2022-08-16T06:54:17.319Z,6.90
2022-08-16T06:56:47.633Z,8.18
2022-08-16T06:59:26.993Z,15.45
2022-08-16T07:01:58.290Z,7.50
2022-08-16T07:04:31.721Z,24.48
2022-08-16T07:07:00.378Z,14.18
2022-08-16T07:09:29.815Z,10.45
2022-08-16T07:12:03.619Z,23.48
2022-08-16T07:14:35.377Z,13.55
2022-08-16T07:17:08.157Z,9.43
2022-08-16T07:20:29.963Z,21.35
2022-08-16T07:22:37.182Z,8.25
2022-08-16T07:25:09.126Z,13.95
2022-08-16T07:27:39.146Z,13.55
2022-08-16T07:30:39.174Z,10.80
2022-08-16T07:33:01.662Z,19.40
2022-08-16T07:35:33.581Z,18.70
2022-08-16T07:38:03.048Z,9.57
2022-08-16T07:40:59.130Z,7.85
2022-08-16T07:43:19.846Z,45.08
2022-08-16T07:45:53.056Z,13.90
2022-08-16T07:48:22.276Z,13.55
2022-08-16T07:50:57.448Z,15.30
2022-08-16T07:53:29.631Z,10.82
2022-08-16T07:56:01.153Z,18.33
2022-08-16T07:58:36.389Z,10.10
2022-08-16T08:01:10.979Z,14.43
2022-08-16T08:03:48.404Z,12.05
2022-08-16T08:06:19.359Z,14.63
2022-08-16T08:08:50.777Z,8.68
2022-08-16T08:11:21.763Z,9.90
2022-08-16T08:13:55.251Z,9.20
2022-08-16T08:16:30.097Z,4.85
2022-08-16T08:21:58.922Z,4.97
2022-08-16T08:24:31.625Z,9.10
2022-08-16T08:27:06.669Z,5.60
2022-08-16T08:29:40.076Z,9.63
2022-08-16T08:32:58.593Z,13.45
2022-08-16T08:35:00.326Z,5.00
2022-08-16T08:37:55.783Z,6.20
2022-08-16T08:40:26.630Z,7.75
2022-08-16T08:42:57.732Z,10.50
2022-08-16T08:45:47.162Z,7.23
2022-08-16T08:48:34.189Z,7.03
2022-08-16T08:51:09.012Z,4.78
2022-08-16T08:53:40.996Z,5.95
2022-08-16T08:56:23.834Z,14.27
2022-08-16T09:01:36.765Z,16.00
2022-08-16T09:04:14.847Z,12.32
2022-08-16T09:06:46.259Z,21.13
2022-08-16T09:09:16.828Z,8.25
2022-08-16T09:11:52.365Z,6.78
2022-08-16T09:14:24.125Z,5.53
2022-08-16T09:17:03.286Z,7.97
2022-08-16T09:19:36.752Z,10.23
2022-08-16T09:22:19.769Z,14.20
2022-08-16T09:24:54.017Z,10.85
2022-08-16T09:27:46.717Z,3.70
2022-08-16T09:30:36.165Z,10.05
2022-08-16T09:33:08.966Z,21.80
2022-08-16T09:35:39.809Z,17.02
2022-08-16T09:38:11.978Z,14.52
2022-08-16T09:40:44.185Z,8.18
2022-08-16T09:43:53.226Z,9.10
2022-08-16T09:46:45.814Z,9.07
2022-08-16T09:48:56.558Z,11.30
2022-08-16T09:51:26.071Z,7.93
2022-08-16T09:53:59.077Z,5.43
2022-08-16T09:56:34.967Z,5.22
2022-08-16T09:59:07.996Z,14.48
2022-08-16T10:01:43.702Z,8.95
2022-08-16T10:04:30.424Z,13.07
2022-08-16T10:07:14.928Z,12.10
2022-08-16T10:09:54.938Z,11.73
2022-08-16T10:12:29.359Z,6.90
2022-08-16T10:14:57.538Z,8.30
2022-08-16T10:17:26.461Z,16.25
2022-08-16T10:19:55.010Z,9.55
2022-08-16T10:25:00.138Z,12.50
2022-08-16T10:27:29.968Z,10.15
2022-08-16T10:30:25.773Z,7.32
2022-08-16T10:32:58.672Z,15.20
2022-08-16T10:35:32.896Z,19.02
2022-08-16T10:38:01.606Z,9.68
2022-08-16T10:40:35.251Z,6.55
2022-08-16T10:43:04.444Z,7.93
2022-08-16T10:45:39.951Z,13.50
2022-08-16T10:48:27.695Z,14.75
2022-08-16T10:50:59.489Z,9.18
2022-08-16T10:53:32.746Z,15.63
2022-08-16T10:58:53.621Z,13.57
2022-08-16T11:01:43.194Z,13.98
2022-08-16T11:09:46.397Z,18.73
2022-08-16T11:12:14.968Z,7.38
2022-08-16T11:17:32.586Z,5.00
2022-08-16T11:20:01.581Z,6.07
2022-08-16T11:22:49.931Z,19.52
2022-08-16T11:28:10.739Z,5.45
2022-08-16T11:30:42.863Z,14.82
2022-08-16T11:33:14.082Z,11.20
2022-08-16T11:36:21.965Z,11.48
2022-08-16T11:38:55.364Z,10.27
2022-08-16T11:41:20.832Z,13.02
2022-08-16T11:43:48.886Z,13.70
2022-08-16T11:46:44.771Z,7.82
2022-08-16T11:49:13.201Z,9.05
2022-08-16T11:51:45.272Z,18.13
2022-08-16T11:54:21.444Z,7.60
2022-08-16T11:56:57.153Z,6.90
2022-08-16T11:59:28.860Z,9.65
2022-08-16T12:01:59.819Z,21.35
2022-08-16T12:04:31.342Z,6.95
2022-08-16T12:06:59.573Z,9.93
2022-08-16T12:09:32.139Z,9.95
2022-08-16T12:12:04.898Z,9.88
2022-08-16T12:14:37.603Z,21.30
2022-08-16T12:17:08.337Z,5.68
2022-08-16T12:19:36.759Z,13.75
2022-08-16T12:22:19.685Z,13.95
2022-08-16T12:24:51.879Z,16.58
2022-08-16T12:27:25.133Z,8.80
2022-08-16T12:29:58.266Z,14.98
2022-08-16T12:32:39.255Z,30.02
2022-08-16T12:35:13.358Z,24.35
2022-08-16T12:37:46.179Z,29.02
2022-08-16T12:40:24.724Z,31.52
2022-08-16T12:42:58.755Z,36.20
2022-08-16T12:45:36.304Z,15.57
2022-08-16T12:48:32.577Z,8.40
2022-08-16T12:50:57.159Z,7.57
2022-08-16T12:53:26.020Z,8.02
2022-08-16T12:56:06.692Z,7.85
2022-08-16T12:58:49.052Z,11.93
2022-08-16T13:04:03.500Z,6.28
2022-08-16T13:06:39.335Z,35.05
2022-08-16T13:09:11.220Z,139.88
2022-08-16T13:11:41.730Z,93.97
2022-08-16T13:14:31.491Z,165.75
2022-08-16T13:17:07.732Z,296.38
2022-08-16T13:20:06.187Z,170.38
2022-08-16T13:22:25.659Z,90.75
2022-08-16T13:24:55.264Z,71.22
2022-08-16T13:27:59.361Z,45.08
2022-08-16T13:30:35.614Z,28.17
2022-08-16T13:33:01.565Z,31.10
2022-08-16T13:35:42.725Z,20.17
2022-08-16T13:38:24.896Z,27.75
2022-08-16T13:40:57.855Z,49.80
2022-08-16T13:43:32.680Z,14.82
2022-08-16T13:46:03.006Z,15.93
2022-08-16T13:48:42.551Z,10.25
2022-08-16T13:51:15.767Z,12.50
2022-08-16T13:53:54.707Z,17.75
2022-08-16T13:56:37.222Z,13.20
2022-08-16T13:59:19.941Z,24.17
2022-08-16T14:01:59.938Z,41.03
2022-08-16T14:04:35.362Z,24.08
2022-08-16T14:07:09.490Z,120.00
2022-08-16T14:09:38.064Z,74.97
2022-08-16T14:12:09.702Z,24.15
2022-08-16T14:14:46.643Z,16.55
2022-08-16T14:17:18.533Z,11.40
2022-08-16T14:19:50.358Z,11.75
2022-08-16T14:22:31.251Z,9.57
2022-08-16T14:25:07.412Z,20.33
2022-08-16T14:27:42.225Z,14.95
2022-08-16T14:30:15.622Z,14.98
2022-08-16T14:32:46.871Z,18.73
2022-08-16T14:35:29.219Z,9.35
2022-08-16T14:38:09.367Z,18.70
2022-08-16T14:40:37.515Z,7.47
2022-08-16T14:43:08.221Z,10.82
2022-08-16T14:45:36.609Z,13.85
2022-08-16T14:48:04.975Z,38.47
2022-08-16T14:50:33.027Z,9.15
2022-08-16T14:53:07.951Z,13.20
2022-08-16T14:55:37.396Z,3.60
2022-08-16T14:58:18.697Z,8.77
2022-08-16T15:00:50.383Z,10.07
2022-08-16T15:03:21.104Z,13.75
2022-08-16T15:05:49.451Z,16.65
2022-08-16T15:08:34.069Z,10.77
2022-08-16T15:11:07.669Z,6.75
2022-08-16T15:13:36.278Z,12.40
2022-08-16T15:16:05.397Z,18.20
2022-08-16T15:18:34.500Z,23.17
2022-08-16T15:21:05.122Z,6.78
2022-08-16T15:23:36.639Z,9.63
2022-08-16T15:26:08.560Z,16.65
2022-08-16T15:28:37.212Z,12.85
2022-08-16T15:31:13.074Z,11.68
2022-08-16T15:33:48.634Z,17.45
2022-08-16T15:36:22.022Z,20.13
2022-08-16T15:39:05.885Z,23.27
2022-08-16T15:41:44.950Z,13.60
2022-08-16T15:44:23.615Z,12.90
2022-08-16T15:46:59.949Z,6.50
2022-08-16T15:49:37.312Z,22.25
2022-08-16T15:52:28.928Z,13.93
2022-08-16T15:55:07.563Z,19.33
2022-08-16T15:57:51.318Z,22.92
2022-08-16T16:00:20.160Z,11.07
2022-08-16T16:02:49.565Z,10.27
2022-08-16T16:05:18.009Z,6.80
2022-08-16T16:07:55.630Z,12.98
2022-08-16T16:10:29.704Z,13.25
2022-08-16T16:13:04.716Z,11.10
2022-08-16T16:15:39.432Z,28.55
2022-08-16T16:18:11.046Z,8.82
2022-08-16T16:20:45.003Z,15.13
2022-08-16T16:23:24.066Z,13.98
2022-08-16T16:25:53.508Z,18.67
2022-08-16T16:29:06.058Z,7.35
2022-08-16T16:31:15.519Z,15.48
2022-08-16T16:33:47.244Z,11.02
2022-08-16T16:36:24.318Z,15.45
2022-08-16T16:38:58.716Z,29.58
2022-08-16T16:41:30.400Z,22.20
2022-08-16T16:43:59.511Z,13.07
2022-08-16T16:46:40.772Z,9.82
2022-08-16T16:49:14.896Z,12.50
2022-08-16T16:51:49.814Z,10.63
2022-08-16T16:54:27.972Z,7.13
2022-08-16T16:56:58.378Z,15.20
2022-08-16T16:59:28.935Z,9.93
2022-08-16T17:02:38.569Z,10.20
2022-08-16T17:04:48.870Z,7.15
2022-08-16T17:07:17.875Z,11.25
2022-08-16T17:09:52.833Z,7.35
2022-08-16T17:12:25.023Z,10.23
2022-08-16T17:14:59.668Z,9.38
2022-08-16T17:17:29.716Z,20.98
2022-08-16T17:19:59.961Z,17.85
2022-08-16T17:26:10.552Z,10.60
2022-08-16T17:29:00.254Z,5.72
2022-08-16T17:31:41.189Z,7.22
2022-08-16T17:34:31.020Z,12.13
2022-08-16T17:37:05.441Z,16.00
2022-08-16T17:43:01.461Z,12.10
2022-08-16T17:45:29.528Z,12.00
2022-08-16T17:47:57.580Z,19.00
2022-08-16T17:50:25.879Z,11.02
2022-08-16T17:52:56.520Z,11.70
2022-08-16T17:55:31.144Z,12.95
2022-08-16T17:57:59.572Z,14.13
2022-08-16T18:00:30.632Z,17.60
2022-08-16T18:02:59.801Z,9.25
2022-08-16T18:05:28.952Z,13.48
2022-08-16T18:07:57.307Z,11.30
2022-08-16T18:10:32.838Z,15.82
2022-08-16T18:13:02.295Z,5.93
2022-08-16T18:15:33.774Z,7.43
2022-08-16T18:18:01.903Z,7.88
2022-08-16T18:20:30.505Z,6.53
2022-08-16T18:23:15.194Z,10.35
2022-08-16T18:25:52.091Z,6.00
2022-08-16T18:28:21.560Z,7.13
2022-08-16T18:30:51.960Z,8.77
2022-08-16T18:33:23.304Z,3.75
2022-08-16T18:35:57.551Z,4.00
2022-08-16T18:38:26.175Z,9.85
2022-08-16T18:40:56.640Z,8.02
2022-08-16T18:44:22.368Z,11.93
2022-08-16T18:46:13.307Z,16.67
2022-08-16T18:48:41.397Z,8.13
2022-08-16T18:51:14.644Z,17.65
2022-08-16T18:53:47.283Z,7.38
2022-08-16T18:56:15.392Z,9.75
2022-08-16T18:58:43.474Z,7.05
2022-08-16T19:01:11.633Z,10.00
2022-08-16T19:03:39.715Z,18.42
2022-08-16T19:06:13.550Z,2.90
2022-08-16T19:08:43.980Z,9.07
2022-08-16T19:11:15.024Z,14.38
2022-08-16T19:13:43.534Z,12.48
2022-08-16T19:16:11.711Z,8.30
2022-08-16T19:18:39.866Z,8.55
2022-08-16T19:21:14.432Z,10.27
2022-08-16T19:23:43.986Z,5.28
2022-08-16T19:26:25.821Z,7.93
2022-08-16T19:28:59.891Z,13.20
2022-08-16T19:31:36.679Z,8.63
2022-08-16T19:34:04.956Z,9.25
2022-08-16T19:36:38.220Z,5.25
2022-08-16T19:39:13.597Z,4.45
2022-08-16T19:41:53.361Z,7.03
2022-08-16T19:44:23.645Z,7.95
2022-08-16T19:46:51.898Z,7.50
2022-08-16T19:49:19.933Z,7.68
2022-08-16T19:51:51.456Z,9.85
2022-08-16T19:54:19.462Z,5.20
2022-08-16T19:56:47.511Z,5.10
2022-08-16T19:59:19.804Z,12.82
2022-08-16T20:01:51.849Z,6.85
2022-08-16T20:04:21.495Z,11.50
2022-08-16T20:06:49.693Z,6.68
2022-08-16T20:09:20.343Z,3.53
2022-08-16T20:11:48.936Z,1.00
2022-08-16T20:14:25.098Z,7.57
2022-08-16T20:17:01.944Z,3.45
2022-08-16T20:19:36.299Z,10.85
2022-08-16T20:22:35.540Z,1.52
2022-08-16T20:25:07.688Z,10.35
2022-08-16T20:27:35.828Z,2.97
2022-08-16T20:30:05.543Z,1.42
2022-08-16T20:32:37.013Z,1.00
2022-08-16T20:35:07.262Z,1.55
2022-08-16T20:37:35.663Z,0.70
2022-08-16T20:40:18.251Z,1.13
2022-08-16T20:43:09.256Z,1.60
2022-08-16T20:45:38.485Z,2.00
2022-08-16T20:48:07.203Z,3.28
2022-08-16T20:50:36.768Z,8.13
2022-08-16T20:53:08.404Z,1.73
2022-08-16T20:55:38.498Z,3.40
2022-08-16T20:58:06.849Z,1.30
2022-08-16T21:00:34.970Z,1.02
2022-08-16T21:03:11.399Z,4.57
2022-08-16T21:05:39.726Z,1.33
2022-08-16T21:08:50.672Z,7.00
2022-08-16T21:11:02.922Z,3.95
2022-08-16T21:13:33.944Z,5.07
2022-08-16T21:16:02.631Z,1.42
2022-08-16T21:18:30.802Z,1.83
2022-08-16T21:21:01.848Z,1.02
2022-08-16T21:23:32.259Z,2.20
2022-08-16T21:26:10.866Z,1.42
2022-08-16T21:28:43.277Z,1.00
2022-08-16T21:33:43.665Z,9.73
2022-08-16T21:36:12.762Z,3.17
2022-08-16T21:38:41.355Z,4.78
2022-08-16T21:41:10.669Z,1.45
2022-08-16T21:43:38.711Z,0.90
2022-08-16T21:46:10.145Z,0.80
2022-08-16T21:48:40.878Z,1.35
2022-08-16T21:51:11.533Z,4.00
2022-08-16T21:53:43.257Z,4.80
2022-08-16T21:56:16.484Z,2.70
2022-08-16T21:58:53.101Z,5.00
2022-08-16T22:01:22.865Z,5.40
2022-08-16T22:04:01.634Z,1.58
2022-08-16T22:06:40.678Z,6.57
2022-08-16T22:09:12.529Z,1.95
2022-08-16T22:11:40.575Z,3.70
2022-08-16T22:14:08.858Z,4.60
2022-08-16T22:16:42.950Z,3.22
2022-08-16T22:19:11.402Z,4.32
2022-08-16T22:21:39.433Z,1.85
2022-08-16T22:24:07.745Z,3.22
2022-08-16T22:26:42.333Z,4.05
2022-08-16T22:29:17.223Z,3.40
2022-08-16T22:31:45.743Z,3.22
2022-08-16T22:34:16.662Z,6.93
2022-08-16T22:36:44.753Z,2.97
2022-08-16T22:39:17.346Z,2.40
2022-08-16T22:41:45.969Z,1.30
2022-08-16T22:44:15.074Z,0.73
2022-08-16T22:46:43.176Z,2.08
2022-08-16T22:49:12.086Z,4.85
2022-08-16T22:51:40.462Z,25.17
2022-08-16T22:54:47.532Z,2.35
2022-08-16T22:56:59.538Z,5.03
2022-08-16T22:59:27.784Z,3.50
2022-08-16T23:01:55.859Z,1.10
2022-08-16T23:04:24.554Z,2.35
2022-08-16T23:06:52.936Z,1.20
2022-08-16T23:09:21.438Z,0.70
2022-08-16T23:11:51.859Z,2.38
2022-08-16T23:14:23.302Z,1.48
2022-08-16T23:16:51.304Z,6.03
2022-08-16T23:19:19.336Z,4.43
2022-08-16T23:21:48.416Z,1.15
2022-08-16T23:24:21.966Z,1.98
2022-08-16T23:29:23.796Z,1.13
2022-08-16T23:32:11.240Z,4.28
2022-08-16T23:34:39.826Z,5.75
2022-08-16T23:37:07.828Z,6.22
2022-08-16T23:39:36.115Z,1.88
2022-08-16T23:42:13.070Z,0.80
2022-08-16T23:44:56.335Z,1.15
2022-08-16T23:47:26.953Z,0.77
2022-08-16T23:50:01.304Z,2.88
2022-08-16T23:52:45.191Z,1.38
2022-08-16T23:55:19.224Z,1.30
2022-08-16T23:57:50.392Z,0.90
